createdAt,value
2022-10-20T00:00:34.886Z,99911.72
2022-10-20T00:03:02.707Z,100075.03
2022-10-20T00:05:30.479Z,99967.97
2022-10-20T00:07:58.141Z,99877.91
2022-10-20T00:10:25.848Z,99855.34
2022-10-20T00:12:54.921Z,99877.16
2022-10-20T00:15:22.576Z,99820.81
2022-10-20T00:17:50.243Z,99895.47
2022-10-20T00:20:23.902Z,99756.06
2022-10-20T00:22:59.234Z,99891.78
2022-10-20T00:25:26.928Z,99625.22
2022-10-20T00:27:58.153Z,99680.09
2022-10-20T00:30:25.902Z,99818.81
2022-10-20T00:32:53.567Z,99995.56
2022-10-20T00:35:21.214Z,100031.69
2022-10-20T00:37:48.836Z,99754.56
2022-10-20T00:40:16.541Z,99869.81
2022-10-20T00:42:45.460Z,99764.22
2022-10-20T00:45:15.371Z,99927.03
2022-10-20T00:50:16.251Z,99521.78
2022-10-20T00:52:44.154Z,99886.34
2022-10-20T00:55:11.904Z,99701.16
2022-10-20T00:57:40.052Z,99961.94
2022-10-20T01:00:08.933Z,99831.47
2022-10-20T01:02:38.307Z,99923.66
2022-10-20T01:05:07.278Z,99741.53
2022-10-20T01:07:35.522Z,100015.50
2022-10-20T01:10:03.935Z,99886.09
2022-10-20T01:12:34.980Z,99829.69
2022-10-20T01:15:05.944Z,99567.03
2022-10-20T01:17:41.323Z,99465.44
2022-10-20T01:20:44.835Z,99951.41
2022-10-20T01:23:27.296Z,99863.31
2022-10-20T01:26:02.819Z,99613.50
2022-10-20T01:28:33.859Z,99723.53
2022-10-20T01:31:03.038Z,99872.59
2022-10-20T01:33:33.797Z,99628.47
2022-10-20T01:36:04.122Z,99560.34
2022-10-20T01:38:34.359Z,99808.03
2022-10-20T01:41:03.263Z,99538.53
2022-10-20T01:43:34.758Z,99896.69
2022-10-20T01:46:02.599Z,99933.06
2022-10-20T01:48:34.199Z,99644.59
2022-10-20T01:51:02.219Z,99368.31
2022-10-20T01:53:30.120Z,99746.22
2022-10-20T01:55:58.520Z,99545.78
2022-10-20T01:58:55.913Z,99711.50
2022-10-20T02:01:29.655Z,99626.75
2022-10-20T02:03:58.141Z,99789.06
2022-10-20T02:06:32.917Z,99564.16
2022-10-20T02:09:01.217Z,99632.78
2022-10-20T02:11:37.919Z,99686.50
2022-10-20T02:14:07.129Z,99514.56
2022-10-20T02:16:37.241Z,100016.41
2022-10-20T02:19:05.069Z,99492.66
2022-10-20T02:21:32.793Z,99630.75
2022-10-20T02:24:03.647Z,99514.38
2022-10-20T02:26:32.316Z,99758.00
2022-10-20T02:29:01.315Z,99567.41
2022-10-20T02:31:30.415Z,99559.84
2022-10-20T02:33:58.195Z,99643.56
2022-10-20T02:36:27.715Z,99863.22
2022-10-20T02:38:55.437Z,99733.75
2022-10-20T02:41:23.159Z,99758.22
2022-10-20T02:43:51.276Z,99672.78
2022-10-20T02:46:18.963Z,99873.00
2022-10-20T02:48:48.001Z,99801.06
2022-10-20T02:51:17.400Z,99751.09
2022-10-20T02:53:45.372Z,99662.09
2022-10-20T02:56:14.026Z,99526.59
2022-10-20T02:58:42.812Z,99620.47
2022-10-20T03:01:10.663Z,99627.38
2022-10-20T03:03:38.429Z,99699.47
2022-10-20T03:06:11.461Z,99799.97
2022-10-20T03:08:39.403Z,99823.75
2022-10-20T03:11:07.341Z,99430.84
2022-10-20T03:13:36.329Z,99733.31
2022-10-20T03:16:05.128Z,99637.41
2022-10-20T03:18:35.094Z,99659.38
2022-10-20T03:26:07.422Z,99790.69
2022-10-20T03:28:35.085Z,99793.19
2022-10-20T03:31:02.655Z,99775.63
2022-10-20T03:33:30.212Z,99785.22
2022-10-20T03:35:57.777Z,99787.91
2022-10-20T03:38:25.524Z,99775.38
2022-10-20T03:40:53.212Z,99779.75
2022-10-20T03:43:22.215Z,99779.78
2022-10-20T03:45:50.089Z,99776.13
2022-10-20T03:48:17.791Z,99785.81
2022-10-20T03:50:45.522Z,99780.44
2022-10-20T03:53:13.673Z,99784.84
2022-10-20T03:55:41.508Z,99781.28
2022-10-20T03:58:09.044Z,99769.88
2022-10-20T04:00:38.000Z,99762.78
2022-10-20T04:03:05.570Z,99777.66
2022-10-20T04:05:33.191Z,99765.28
2022-10-20T04:08:00.729Z,99753.03
2022-10-20T04:10:28.351Z,99758.34
2022-10-20T04:12:59.033Z,99767.97
2022-10-20T04:15:26.699Z,99758.28
2022-10-20T04:17:55.687Z,99752.19
2022-10-20T04:20:23.368Z,99761.78
2022-10-20T04:22:50.958Z,99752.16
2022-10-20T04:25:19.315Z,99735.38
2022-10-20T04:27:47.084Z,99733.56
2022-10-20T04:30:14.737Z,99734.72
2022-10-20T04:32:42.394Z,99730.19
2022-10-20T04:35:11.511Z,99727.50
2022-10-20T04:37:39.651Z,99703.13
2022-10-20T04:40:08.561Z,99721.31
2022-10-20T04:42:36.184Z,99723.00
2022-10-20T04:45:03.853Z,99703.06
2022-10-20T04:47:46.834Z,99718.63
2022-10-20T04:50:15.971Z,99706.41
2022-10-20T04:52:44.596Z,99704.69
2022-10-20T04:55:12.128Z,99694.09
2022-10-20T04:57:39.955Z,99681.19
2022-10-20T05:00:08.660Z,99675.69
2022-10-20T05:02:36.252Z,99682.75
2022-10-20T05:05:04.890Z,99677.34
2022-10-20T05:07:34.216Z,99661.44
2022-10-20T05:10:02.089Z,99675.38
2022-10-20T05:12:29.661Z,99658.78
2022-10-20T05:14:57.269Z,99662.09
2022-10-20T05:17:24.924Z,99654.16
2022-10-20T05:19:52.457Z,99650.53
2022-10-20T05:22:20.095Z,99609.75
2022-10-20T05:24:49.239Z,99646.03
2022-10-20T05:27:16.779Z,99661.94
2022-10-20T05:29:44.424Z,99666.22
2022-10-20T05:32:12.162Z,99653.81
2022-10-20T05:34:40.051Z,99651.19
2022-10-20T05:37:07.580Z,99645.00
2022-10-20T05:39:35.225Z,99637.22
2022-10-20T05:42:04.327Z,99623.03
2022-10-20T05:44:32.140Z,99616.09
2022-10-20T05:46:59.700Z,99626.75
2022-10-20T05:49:27.509Z,99622.38
2022-10-20T05:51:55.054Z,99638.19
2022-10-20T05:54:22.810Z,99635.59
2022-10-20T05:56:50.348Z,99628.69
2022-10-20T05:59:19.397Z,99617.31
2022-10-20T06:01:50.115Z,99627.03
2022-10-20T06:04:18.323Z,99630.59
2022-10-20T06:06:45.883Z,99640.34
2022-10-20T06:09:13.510Z,99658.03
2022-10-20T06:11:41.167Z,99635.19
2022-10-20T06:14:09.030Z,99627.38
2022-10-20T06:16:37.985Z,99643.34
2022-10-20T06:19:06.658Z,99585.91
2022-10-20T06:21:34.642Z,99627.53
2022-10-20T06:24:04.241Z,99637.16
2022-10-20T06:26:33.294Z,99642.53
2022-10-20T06:29:04.288Z,99630.56
2022-10-20T06:31:34.524Z,99645.19
2022-10-20T06:34:05.025Z,99637.31
2022-10-20T06:36:32.895Z,99647.81
2022-10-20T06:39:01.745Z,99625.09
2022-10-20T06:41:29.413Z,99624.03
2022-10-20T06:43:59.578Z,99625.00
2022-10-20T06:46:27.813Z,99583.06
2022-10-20T06:48:58.595Z,99651.25
2022-10-20T06:51:35.475Z,99629.25
2022-10-20T06:54:03.084Z,99632.59
2022-10-20T06:56:31.667Z,99623.13
2022-10-20T06:58:59.566Z,99654.50
2022-10-20T07:01:27.822Z,99650.75
2022-10-20T07:03:56.488Z,99653.25
2022-10-20T07:06:26.592Z,99632.13
2022-10-20T07:08:56.305Z,99643.47
2022-10-20T07:11:25.009Z,99631.94
2022-10-20T07:13:52.674Z,99628.28
2022-10-20T07:16:21.305Z,99552.03
2022-10-20T07:18:48.971Z,99654.28
2022-10-20T07:21:17.674Z,99614.75
2022-10-20T07:23:45.318Z,99643.66
2022-10-20T07:26:15.532Z,99633.41
2022-10-20T07:28:43.828Z,99627.16
2022-10-20T07:31:12.562Z,99637.38
2022-10-20T07:33:40.242Z,99638.78
2022-10-20T07:36:15.161Z,99652.59
2022-10-20T07:38:42.821Z,99666.28
2022-10-20T07:41:10.767Z,99677.44
2022-10-20T07:43:39.898Z,99676.91
2022-10-20T07:46:07.546Z,99662.47
2022-10-20T07:48:35.483Z,99682.44
2022-10-20T07:51:19.277Z,99655.94
2022-10-20T07:53:46.943Z,99632.31
2022-10-20T07:56:14.651Z,99544.44
2022-10-20T07:58:43.957Z,99615.03
2022-10-20T08:01:11.530Z,99598.81
2022-10-20T08:03:39.120Z,99614.91
2022-10-20T08:06:07.186Z,99615.78
2022-10-20T08:08:35.112Z,99632.75
2022-10-20T08:11:02.710Z,99616.09
2022-10-20T08:13:30.750Z,99613.38
2022-10-20T08:16:02.698Z,99569.00
2022-10-20T08:18:33.316Z,99618.09
2022-10-20T08:21:10.969Z,99578.84
2022-10-20T08:23:42.025Z,99613.09
2022-10-20T08:26:11.444Z,99619.00
2022-10-20T08:28:40.286Z,99610.53
2022-10-20T08:31:09.580Z,99633.66
2022-10-20T08:33:37.182Z,99600.41
2022-10-20T08:36:05.866Z,99602.38
2022-10-20T08:38:33.590Z,99592.63
2022-10-20T08:41:01.370Z,99598.84
2022-10-20T08:43:28.938Z,99601.16
2022-10-20T08:45:56.607Z,99610.56
2022-10-20T08:48:27.090Z,99609.91
2022-10-20T08:50:54.638Z,99606.59
2022-10-20T08:53:23.726Z,99627.03
2022-10-20T08:55:52.696Z,99610.09
2022-10-20T08:58:21.267Z,99597.13
2022-10-20T09:00:48.975Z,99600.16
2022-10-20T09:03:18.258Z,99612.09
2022-10-20T09:05:48.981Z,99606.53
2022-10-20T09:08:16.755Z,99618.63
2022-10-20T09:10:46.657Z,99615.78
2022-10-20T09:13:20.962Z,99606.78
2022-10-20T09:15:49.467Z,99616.31
2022-10-20T09:18:17.095Z,99592.97
2022-10-20T09:20:47.465Z,99619.84
2022-10-20T09:23:35.390Z,99608.63
2022-10-20T09:26:03.121Z,99612.44
2022-10-20T09:28:34.975Z,99596.53
2022-10-20T09:31:22.006Z,99587.09
2022-10-20T09:33:49.578Z,99609.16
2022-10-20T09:36:19.039Z,99601.13
2022-10-20T09:38:48.095Z,99593.13
2022-10-20T09:41:17.548Z,99607.03
2022-10-20T09:43:50.572Z,99618.97
2022-10-20T09:46:20.073Z,99594.09
2022-10-20T09:48:48.647Z,99585.84
2022-10-20T09:51:19.800Z,99605.19
2022-10-20T09:53:51.795Z,99587.38
2022-10-20T09:56:30.015Z,99593.41
2022-10-20T09:58:57.793Z,99579.56
2022-10-20T10:01:25.634Z,99577.38
2022-10-20T10:03:56.027Z,99534.53
2022-10-20T10:06:31.319Z,99545.59
2022-10-20T10:08:59.597Z,99570.06
2022-10-20T10:11:29.882Z,99570.25
2022-10-20T10:13:57.491Z,99536.50
2022-10-20T10:16:26.453Z,99597.22
2022-10-20T10:18:59.772Z,99585.06
2022-10-20T10:21:29.106Z,99591.16
2022-10-20T10:23:57.551Z,99576.84
2022-10-20T10:26:35.895Z,99613.88
2022-10-20T10:29:03.860Z,99595.91
2022-10-20T10:31:31.463Z,99616.31
2022-10-20T10:34:22.261Z,99614.84
2022-10-20T10:36:51.230Z,99599.28
2022-10-20T10:39:19.947Z,99612.28
2022-10-20T10:44:37.871Z,99621.59
2022-10-20T10:47:11.126Z,99616.53
2022-10-20T10:49:43.348Z,99609.84
2022-10-20T10:52:20.858Z,99561.06
2022-10-20T10:54:58.495Z,99580.34
2022-10-20T10:57:31.042Z,99585.78
2022-10-20T10:59:59.931Z,99570.69
2022-10-20T11:03:08.287Z,99568.09
2022-10-20T11:05:59.447Z,99564.41
2022-10-20T11:08:34.471Z,99562.19
2022-10-20T11:11:05.478Z,99544.66
2022-10-20T11:13:36.621Z,99524.53
2022-10-20T11:16:25.725Z,99547.22
2022-10-20T11:19:05.127Z,99549.38
2022-10-20T11:21:34.768Z,99552.13
2022-10-20T11:24:40.195Z,99556.41
2022-10-20T11:27:10.634Z,99543.56
2022-10-20T11:29:39.028Z,99539.28
2022-10-20T11:32:10.439Z,99539.63
2022-10-20T11:34:39.405Z,99538.66
2022-10-20T11:37:08.794Z,99540.38
2022-10-20T11:39:40.594Z,99572.75
2022-10-20T11:42:16.622Z,99580.41
2022-10-20T11:44:44.439Z,99591.59
2022-10-20T11:47:14.412Z,99566.97
2022-10-20T11:49:42.062Z,99568.03
2022-10-20T11:52:17.445Z,99578.06
2022-10-20T11:55:05.342Z,99585.22
2022-10-20T11:57:41.528Z,99584.84
2022-10-20T12:03:23.212Z,99582.38
2022-10-20T12:06:15.258Z,99575.81
2022-10-20T12:08:52.910Z,99586.34
2022-10-20T12:11:25.279Z,99568.97
2022-10-20T12:13:57.738Z,99544.63
2022-10-20T12:17:05.561Z,99557.81
2022-10-20T12:19:33.957Z,99554.69
2022-10-20T12:22:02.433Z,99556.41
2022-10-20T12:24:31.493Z,99545.13
2022-10-20T12:27:19.413Z,99544.03
2022-10-20T12:29:52.146Z,99553.78
2022-10-20T12:33:00.949Z,99551.81
2022-10-20T12:35:44.688Z,99531.00
2022-10-20T12:38:17.026Z,99499.28
2022-10-20T12:40:45.777Z,99514.81
2022-10-20T12:43:25.616Z,99523.06
2022-10-20T12:45:53.196Z,99539.97
2022-10-20T12:48:21.800Z,99538.72
2022-10-20T12:50:50.131Z,99520.84
2022-10-20T12:53:21.316Z,99476.63
2022-10-20T12:55:58.985Z,99506.06
2022-10-20T12:58:29.785Z,99473.44
2022-10-20T13:01:08.816Z,99500.00
2022-10-20T13:03:38.550Z,99498.06
2022-10-20T13:06:39.404Z,99501.97
2022-10-20T13:09:28.423Z,99505.78
2022-10-20T13:12:00.904Z,99511.63
2022-10-20T13:14:42.715Z,99513.06
2022-10-20T13:17:17.766Z,99509.19
2022-10-20T13:19:46.320Z,99512.19
2022-10-20T13:22:37.817Z,99497.72
2022-10-20T13:25:07.319Z,99513.03
2022-10-20T13:27:35.200Z,99492.50
2022-10-20T13:30:07.290Z,99496.84
2022-10-20T13:32:43.414Z,99502.75
2022-10-20T13:35:23.438Z,99499.97
2022-10-20T13:37:57.606Z,99464.66
2022-10-20T13:40:31.099Z,99444.09
2022-10-20T13:43:19.865Z,99510.38
2022-10-20T13:46:06.864Z,99507.53
2022-10-20T13:48:41.892Z,99518.81
2022-10-20T13:51:13.278Z,99506.34
2022-10-20T13:53:43.844Z,99493.94
2022-10-20T13:56:20.609Z,99510.38
2022-10-20T13:59:01.895Z,99495.38
2022-10-20T14:01:35.019Z,99485.22
2022-10-20T14:04:02.915Z,99439.66
2022-10-20T14:06:31.974Z,99469.03
2022-10-20T14:09:00.448Z,99485.59
2022-10-20T14:11:30.468Z,99487.84
2022-10-20T14:13:58.182Z,99491.38
2022-10-20T14:16:27.845Z,99488.00
2022-10-20T14:19:03.340Z,99478.72
2022-10-20T14:21:42.949Z,99487.97
2022-10-20T14:24:16.799Z,99485.56
2022-10-20T14:26:45.167Z,99475.63
2022-10-20T14:29:13.491Z,99478.19
2022-10-20T14:31:41.115Z,99467.31
2022-10-20T14:34:18.803Z,99463.47
2022-10-20T14:36:46.373Z,99465.03
2022-10-20T14:39:21.656Z,99447.41
2022-10-20T14:41:49.260Z,99455.09
2022-10-20T14:44:31.100Z,99450.13
2022-10-20T14:47:00.853Z,99468.63
2022-10-20T14:49:30.959Z,99462.47
2022-10-20T14:51:59.608Z,99450.00
2022-10-20T14:54:32.413Z,99451.16
2022-10-20T14:57:00.805Z,99453.69
2022-10-20T14:59:33.026Z,99455.31
2022-10-20T15:02:04.826Z,99454.44
2022-10-20T15:04:36.179Z,99351.03
2022-10-20T15:07:05.840Z,99454.63
2022-10-20T15:09:40.153Z,99456.78
2022-10-20T15:12:08.434Z,99444.50
2022-10-20T15:14:36.144Z,99464.78
2022-10-20T15:17:04.178Z,99469.94
2022-10-20T15:19:35.256Z,99458.13
2022-10-20T15:24:48.910Z,99463.88
2022-10-20T15:27:17.802Z,99485.59
2022-10-20T15:29:48.632Z,99463.81
2022-10-20T15:32:16.764Z,99444.75
2022-10-20T15:34:46.116Z,99449.63
2022-10-20T15:37:13.760Z,99456.31
2022-10-20T15:39:41.394Z,99444.94
2022-10-20T15:42:11.929Z,99450.28
2022-10-20T15:44:39.521Z,99459.88
2022-10-20T15:47:07.343Z,99449.44
2022-10-20T15:49:34.932Z,99407.03
2022-10-20T15:52:04.167Z,99441.53
2022-10-20T15:54:31.730Z,99444.88
2022-10-20T15:56:59.441Z,99427.25
2022-10-20T15:59:27.484Z,99427.44
2022-10-20T16:01:55.301Z,99433.75
2022-10-20T16:04:26.063Z,99417.97
2022-10-20T16:06:57.741Z,99418.25
2022-10-20T16:09:28.193Z,99419.84
2022-10-20T16:11:59.179Z,99417.31
2022-10-20T16:14:26.695Z,99409.59
2022-10-20T16:16:54.406Z,99433.19
2022-10-20T16:19:21.940Z,99432.41
2022-10-20T16:21:49.686Z,99371.69
2022-10-20T16:24:17.324Z,99412.56
2022-10-20T16:26:46.265Z,99416.19
2022-10-20T16:29:13.836Z,99416.31
2022-10-20T16:31:41.454Z,99416.38
2022-10-20T16:34:09.118Z,99419.38
2022-10-20T16:36:36.707Z,99408.56
2022-10-20T16:39:04.320Z,99394.56
2022-10-20T16:41:31.931Z,99393.81
2022-10-20T16:44:01.365Z,99408.94
2022-10-20T16:46:29.057Z,99408.06
2022-10-20T16:48:57.144Z,99411.75
2022-10-20T16:51:24.750Z,99404.81
2022-10-20T16:53:52.449Z,99396.09
2022-10-20T16:56:21.085Z,99401.31
2022-10-20T16:58:49.028Z,99409.28
2022-10-20T17:01:19.307Z,99396.09
2022-10-20T17:03:50.584Z,99270.91
2022-10-20T17:06:19.413Z,99375.00
2022-10-20T17:08:47.522Z,99131.59
2022-10-20T17:11:16.027Z,99155.22
2022-10-20T17:13:43.979Z,99302.91
2022-10-20T17:16:13.063Z,99309.28
2022-10-20T17:18:42.257Z,99022.69
2022-10-20T17:21:10.247Z,99057.19
2022-10-20T17:23:41.686Z,99326.38
2022-10-20T17:26:12.426Z,99249.47
2022-10-20T17:28:40.114Z,99104.97
2022-10-20T17:31:08.524Z,99252.13
2022-10-20T17:33:37.384Z,99133.50
2022-10-20T17:36:07.360Z,99211.78
2022-10-20T17:38:35.870Z,98973.56
2022-10-20T17:41:04.412Z,99390.41
2022-10-20T17:43:35.637Z,99287.94
2022-10-20T17:46:04.504Z,99066.16
2022-10-20T17:48:32.301Z,99412.63
2022-10-20T17:51:01.438Z,99126.28
2022-10-20T17:53:32.366Z,99453.44
2022-10-20T17:56:03.698Z,99238.19
2022-10-20T17:58:33.723Z,99196.25
2022-10-20T18:01:09.721Z,99241.22
2022-10-20T18:03:37.634Z,99315.06
2022-10-20T18:06:09.941Z,99394.88
2022-10-20T18:08:39.378Z,99169.97
2022-10-20T18:11:10.404Z,99505.59
2022-10-20T18:13:38.846Z,99424.53
2022-10-20T18:16:08.006Z,99345.94
2022-10-20T18:18:35.898Z,99342.41
2022-10-20T18:21:04.344Z,99210.03
2022-10-20T18:23:33.432Z,99416.66
2022-10-20T18:26:07.869Z,99325.13
2022-10-20T18:28:36.335Z,98979.47
2022-10-20T18:31:07.432Z,99101.56
2022-10-20T18:33:35.242Z,98960.63
2022-10-20T18:36:04.323Z,99261.06
2022-10-20T18:38:32.330Z,99348.97
2022-10-20T18:41:06.657Z,99201.97
2022-10-20T18:43:34.622Z,99244.50
2022-10-20T18:46:02.846Z,99241.19
2022-10-20T18:48:31.369Z,99352.06
2022-10-20T18:51:00.267Z,99262.50
2022-10-20T18:53:28.506Z,99173.81
2022-10-20T18:56:02.455Z,99295.47
2022-10-20T18:58:35.152Z,98944.47
2022-10-20T19:01:04.480Z,99172.41
2022-10-20T19:03:34.237Z,99415.47
2022-10-20T19:06:02.544Z,99051.09
2022-10-20T19:08:30.537Z,99204.94
2022-10-20T19:10:58.388Z,99301.34
2022-10-20T19:13:26.937Z,99323.06
2022-10-20T19:15:56.504Z,99228.13
2022-10-20T19:18:24.390Z,98902.69
2022-10-20T19:20:55.665Z,99276.66
2022-10-20T19:23:27.250Z,99428.81
2022-10-20T19:26:05.945Z,99347.34
2022-10-20T19:28:34.609Z,99199.13
2022-10-20T19:31:03.790Z,99150.16
2022-10-20T19:33:31.547Z,99246.47
2022-10-20T19:35:59.398Z,99312.69
2022-10-20T19:38:27.148Z,99344.38
2022-10-20T19:40:55.051Z,99260.25
2022-10-20T19:43:22.898Z,99031.88
2022-10-20T19:45:50.610Z,99095.38
2022-10-20T19:48:21.071Z,99212.53
2022-10-20T19:50:48.794Z,99046.97
2022-10-20T19:53:16.664Z,99323.66
2022-10-20T19:55:47.360Z,98954.38
2022-10-20T19:58:15.108Z,99023.13
2022-10-20T20:00:44.476Z,99017.31
2022-10-20T20:03:12.234Z,99177.63
2022-10-20T20:05:41.288Z,99117.66
2022-10-20T20:08:09.091Z,99064.19
2022-10-20T20:10:37.451Z,99366.22
2022-10-20T20:13:05.295Z,99367.19
2022-10-20T20:15:33.076Z,99221.78
2022-10-20T20:18:00.718Z,98993.09
2022-10-20T20:20:28.353Z,99146.53
2022-10-20T20:22:57.494Z,99102.63
2022-10-20T20:25:25.139Z,98994.56
2022-10-20T20:27:54.824Z,99232.72
2022-10-20T20:30:22.538Z,99127.00
2022-10-20T20:32:53.530Z,98985.56
2022-10-20T20:35:22.047Z,99060.38
2022-10-20T20:37:50.143Z,99295.47
2022-10-20T20:40:20.144Z,99114.19
2022-10-20T20:42:48.164Z,99204.91
2022-10-20T20:45:16.051Z,99016.06
2022-10-20T20:47:46.683Z,99180.59
2022-10-20T20:50:14.653Z,98901.44
2022-10-20T20:52:42.377Z,99019.41
2022-10-20T20:55:10.524Z,98998.88
2022-10-20T20:57:39.770Z,99264.38
2022-10-20T21:00:08.893Z,99192.19
2022-10-20T21:02:36.654Z,99205.03
2022-10-20T21:05:04.549Z,98899.00
2022-10-20T21:07:32.378Z,99138.78
2022-10-20T21:10:00.329Z,98994.69
2022-10-20T21:12:29.644Z,99081.97
2022-10-20T21:15:00.869Z,99017.66
2022-10-20T21:17:28.538Z,98922.16
2022-10-20T21:19:56.311Z,99101.88
2022-10-20T21:22:24.006Z,99316.00
2022-10-20T21:24:51.686Z,99136.31
2022-10-20T21:27:19.329Z,99292.88
2022-10-20T21:29:48.494Z,98974.47
2022-10-20T21:32:18.447Z,99177.78
2022-10-20T21:34:46.268Z,98846.41
2022-10-20T21:37:14.674Z,99237.66
2022-10-20T21:39:43.375Z,99208.63
2022-10-20T21:42:11.030Z,99129.28
2022-10-20T21:44:38.851Z,98984.09
2022-10-20T21:47:06.489Z,99170.19
2022-10-20T21:49:35.902Z,99117.38
2022-10-20T21:52:03.581Z,99263.22
2022-10-20T21:54:32.703Z,99152.91
2022-10-20T21:57:03.103Z,99212.19
2022-10-20T21:59:31.219Z,99153.25
2022-10-20T22:01:59.679Z,98781.28
2022-10-20T22:04:28.496Z,99211.41
2022-10-20T22:06:57.553Z,99202.47
2022-10-20T22:09:25.178Z,98829.31
2022-10-20T22:11:55.050Z,98866.44
2022-10-20T22:14:22.796Z,99167.88
2022-10-20T22:16:50.413Z,99069.50
2022-10-20T22:19:19.718Z,99274.47
2022-10-20T22:21:48.157Z,99202.28
2022-10-20T22:24:18.484Z,99361.81
2022-10-20T22:26:46.311Z,99203.44
2022-10-20T22:29:13.978Z,99246.72
2022-10-20T22:31:41.827Z,98928.81
2022-10-20T22:34:09.494Z,99254.06
2022-10-20T22:36:37.187Z,99041.22
2022-10-20T22:39:05.152Z,99118.97
2022-10-20T22:41:34.314Z,98967.16
2022-10-20T22:44:01.996Z,99102.25
2022-10-20T22:46:29.681Z,99293.34
2022-10-20T22:51:24.953Z,99274.22
2022-10-20T22:53:52.612Z,99176.03
2022-10-20T22:56:21.314Z,99235.69
2022-10-20T22:58:50.480Z,99257.88
2022-10-20T23:01:19.101Z,99098.28
2022-10-20T23:06:23.681Z,99302.78
2022-10-20T23:08:52.250Z,99299.59
2022-10-20T23:11:20.042Z,99296.22
2022-10-20T23:13:48.019Z,99277.47
2022-10-20T23:16:17.022Z,99275.63
2022-10-20T23:18:44.566Z,99257.78
2022-10-20T23:21:12.236Z,99264.00
2022-10-20T23:23:39.745Z,99265.78
2022-10-20T23:26:09.136Z,99247.47
2022-10-20T23:28:37.074Z,99271.88
2022-10-20T23:31:09.264Z,99272.66
2022-10-20T23:33:38.243Z,99264.53
2022-10-20T23:36:06.180Z,99261.09
2022-10-20T23:38:33.714Z,99281.19
2022-10-20T23:41:01.368Z,99279.38
2022-10-20T23:43:30.029Z,99261.66
2022-10-20T23:45:57.686Z,99260.78
2022-10-20T23:48:25.375Z,99251.84
2022-10-20T23:50:54.379Z,99250.00
2022-10-20T23:53:22.059Z,99176.56
2022-10-20T23:55:49.630Z,99219.22
2022-10-20T23:58:20.963Z,99218.22
